Archival Weather

Republic

Farmingdale, New York (KFRG)

Report from: Wednesday, February 21, 2024 1:53 PM EST
Current time: Friday, June 14, 2024 8:59 AM EDT

Current weather – Weather history – Daily summaries
Weather forecast

Temperature3.3°C (37.9°F)
Wind chill0.8°C (33.5°F)
Dew point-3.9°C (25.0°F)
Winds 5 kts (2.6 m/s, 5.8 mph) East (100°)
Visibility10 mi. (16.1 km)
Clouds Ceiling: Overcast 3,200 ft. (975 m)
Altimeter30.39 in.Hg (1029 mB)
Relative humidity59 %
Density altitude-1,887 ft. (-575 m)
Sea-level pressure102.9 kPa (1029 mB, 30.39 in.Hg)
Remarks Automated weather observing station without precipitation discriminator
Flight conditions Visual Meteorological Conditions
Raw dataKFRG 211853Z 10005KT 10SM OVC032 03/M04 A3039 RMK AO1 SLP292 T00331039
An error has occurred. This application may no longer respond until reloaded. Reload 🗙